createdAt,value
2019-05-19T00:01:12.413Z,100627.67
2019-05-19T00:03:42.937Z,100632.34
2019-05-19T00:06:13.558Z,100627.29
2019-05-19T00:08:44.184Z,100621.50
2019-05-19T00:11:14.888Z,100629.23
2019-05-19T00:13:45.765Z,100620.09
2019-05-19T00:16:16.314Z,100617.41
2019-05-19T00:18:47.295Z,100626.09
2019-05-19T00:21:18.042Z,100620.83
2019-05-19T00:23:48.797Z,100618.58
2019-05-19T00:26:19.737Z,100613.22
2019-05-19T00:28:50.596Z,100616.55
2019-05-19T00:31:21.272Z,100620.20
2019-05-19T00:33:52.157Z,100625.23
2019-05-19T00:36:23.800Z,100626.63
2019-05-19T00:38:54.957Z,100630.63
2019-05-19T00:41:25.675Z,100633.94
2019-05-19T00:43:56.465Z,100636.59
2019-05-19T00:46:27.422Z,100635.83
2019-05-19T00:48:58.179Z,100629.08
2019-05-19T00:51:29.325Z,100624.11
2019-05-19T00:54:00.605Z,100628.95
2019-05-19T00:56:33.117Z,100621.11
2019-05-19T00:59:05.393Z,100625.53
2019-05-19T01:01:35.876Z,100630.47
2019-05-19T01:04:06.773Z,100635.30
2019-05-19T01:06:37.861Z,100628.83
2019-05-19T01:09:08.708Z,100619.52
2019-05-19T01:11:39.444Z,100621.53
2019-05-19T01:14:10.325Z,100634.86
2019-05-19T01:16:41.284Z,100635.27
2019-05-19T01:19:12.342Z,100647.52
2019-05-19T01:21:44.799Z,100648.56
2019-05-19T01:24:15.583Z,100650.83
2019-05-19T01:26:46.339Z,100657.47
2019-05-19T01:29:17.277Z,100650.66
2019-05-19T01:31:47.828Z,100658.80
2019-05-19T01:34:18.698Z,100662.12
2019-05-19T01:36:50.733Z,100663.75
2019-05-19T01:39:21.446Z,100670.38
2019-05-19T01:41:52.275Z,100673.92
2019-05-19T01:44:23.130Z,100672.84
2019-05-19T01:46:53.891Z,100675.69
2019-05-19T01:49:24.842Z,100685.73
2019-05-19T01:51:55.925Z,100686.69
2019-05-19T01:54:26.657Z,100686.56
2019-05-19T01:56:57.614Z,100679.20
2019-05-19T01:59:28.590Z,100678.00
2019-05-19T02:01:59.245Z,100675.09
2019-05-19T02:04:30.287Z,100682.58
2019-05-19T02:07:01.040Z,100679.83
2019-05-19T02:09:31.623Z,100673.66
2019-05-19T02:12:02.258Z,100671.51
2019-05-19T02:14:32.915Z,100669.75
2019-05-19T02:17:03.449Z,100670.31
2019-05-19T02:19:34.416Z,100677.64
2019-05-19T02:22:06.093Z,100685.05
2019-05-19T02:24:36.940Z,100676.69
2019-05-19T02:27:07.482Z,100676.05
2019-05-19T02:29:38.173Z,100667.02
2019-05-19T02:32:09.003Z,100675.18
2019-05-19T02:34:40.075Z,100675.83
2019-05-19T02:37:11.972Z,100687.20
2019-05-19T02:39:42.642Z,100682.41
2019-05-19T02:42:16.724Z,100683.19
2019-05-19T02:44:49.538Z,100686.06
2019-05-19T02:47:22.307Z,100689.89
2019-05-19T02:49:54.600Z,100695.58
2019-05-19T02:52:27.315Z,100694.56
2019-05-19T02:55:01.393Z,100703.97
2019-05-19T02:57:33.399Z,100700.58
2019-05-19T03:00:09.315Z,100705.11
2019-05-19T03:02:40.269Z,100708.64
2019-05-19T03:05:11.145Z,100711.66
2019-05-19T03:07:41.845Z,100719.28
2019-05-19T03:10:12.815Z,100711.77
2019-05-19T03:12:43.857Z,100717.24
2019-05-19T03:15:15.041Z,100718.98
2019-05-19T03:17:45.976Z,100714.73
2019-05-19T03:20:17.364Z,100713.32
2019-05-19T03:22:48.508Z,100718.02
2019-05-19T03:25:19.209Z,100716.98
2019-05-19T03:27:50.088Z,100718.47
2019-05-19T03:30:38.075Z,100718.41
2019-05-19T03:33:10.707Z,100722.16
2019-05-19T03:35:41.633Z,100723.70
2019-05-19T03:38:12.439Z,100715.70
2019-05-19T03:40:43.087Z,100722.38
2019-05-19T03:43:13.745Z,100723.33
2019-05-19T03:45:44.623Z,100720.27
2019-05-19T03:48:15.710Z,100728.63
2019-05-19T03:50:46.597Z,100721.23
2019-05-19T03:53:18.213Z,100717.94
2019-05-19T03:55:49.094Z,100725.29
2019-05-19T03:58:20.081Z,100725.86
2019-05-19T04:00:51.209Z,100725.76
2019-05-19T04:03:22.067Z,100725.92
2019-05-19T04:05:52.702Z,100719.78
2019-05-19T04:08:23.487Z,100730.79
2019-05-19T04:10:54.390Z,100731.44
2019-05-19T04:13:25.059Z,100737.17
2019-05-19T04:15:55.665Z,100736.35
2019-05-19T04:18:26.256Z,100730.36
2019-05-19T04:20:56.994Z,100743.75
2019-05-19T04:23:27.537Z,100743.89
2019-05-19T04:25:58.390Z,100742.02
2019-05-19T04:28:29.197Z,100749.58
2019-05-19T04:30:59.858Z,100758.00
2019-05-19T04:33:30.654Z,100754.77
2019-05-19T04:36:01.338Z,100751.43
2019-05-19T04:38:31.971Z,100749.18
2019-05-19T04:41:02.701Z,100751.58
2019-05-19T04:43:33.240Z,100753.56
2019-05-19T04:46:04.297Z,100764.94
2019-05-19T04:48:35.029Z,100759.17
2019-05-19T04:51:05.707Z,100759.84
2019-05-19T04:53:36.323Z,100758.23
2019-05-19T04:56:07.151Z,100759.24
2019-05-19T04:58:38.139Z,100766.58
2019-05-19T05:01:09.059Z,100760.84
2019-05-19T05:03:39.763Z,100759.98
2019-05-19T05:06:10.505Z,100765.52
2019-05-19T05:08:41.236Z,100756.73
2019-05-19T05:11:11.948Z,100756.63
2019-05-19T05:13:42.604Z,100766.94
2019-05-19T05:16:13.297Z,100765.41
2019-05-19T05:18:43.766Z,100761.35
2019-05-19T05:21:14.538Z,100767.19
2019-05-19T05:23:45.371Z,100765.00
2019-05-19T05:26:16.272Z,100764.65
2019-05-19T05:28:46.979Z,100766.50
2019-05-19T05:31:17.823Z,100768.65
2019-05-19T05:33:56.972Z,100768.63
2019-05-19T05:36:39.032Z,100763.51
2019-05-19T05:39:22.065Z,100769.94
2019-05-19T05:42:04.339Z,100763.89
2019-05-19T05:44:54.868Z,100765.58
2019-05-19T05:47:30.270Z,100765.54
2019-05-19T05:50:00.802Z,100765.20
2019-05-19T05:52:38.539Z,100779.48
2019-05-19T05:55:04.600Z,100780.30
2019-05-19T05:57:35.245Z,100771.53
2019-05-19T06:00:08.704Z,100766.52
2019-05-19T06:02:39.627Z,100773.17
2019-05-19T06:05:10.561Z,100778.08
2019-05-19T06:07:41.314Z,100787.53
2019-05-19T06:10:12.578Z,100779.97
2019-05-19T06:12:43.216Z,100789.87
2019-05-19T06:15:13.925Z,100779.58
2019-05-19T06:17:44.879Z,100774.42
2019-05-19T06:20:15.639Z,100779.17
2019-05-19T06:22:55.981Z,100777.09
2019-05-19T06:25:18.548Z,100778.50
2019-05-19T06:27:49.393Z,100781.25
2019-05-19T06:30:20.348Z,100772.77
2019-05-19T06:32:52.943Z,100784.91
2019-05-19T06:35:24.005Z,100769.54
2019-05-19T06:37:55.158Z,100777.15
2019-05-19T06:40:26.016Z,100775.30
2019-05-19T06:42:56.982Z,100771.84
2019-05-19T06:45:27.964Z,100766.63
2019-05-19T06:47:58.903Z,100781.95
2019-05-19T06:50:29.841Z,100777.00
2019-05-19T06:53:14.061Z,100778.80
2019-05-19T06:56:01.581Z,100772.09
2019-05-19T06:58:35.054Z,100786.50
2019-05-19T07:01:06.125Z,100781.17
2019-05-19T07:03:51.391Z,100784.66
2019-05-19T07:06:23.294Z,100784.89
2019-05-19T07:08:54.124Z,100788.44
2019-05-19T07:11:25.171Z,100784.19
2019-05-19T07:13:56.129Z,100785.73
2019-05-19T07:16:27.307Z,100788.64
2019-05-19T07:19:02.917Z,100785.86
2019-05-19T07:21:34.236Z,100785.12
2019-05-19T07:24:05.284Z,100788.26
2019-05-19T07:26:36.156Z,100788.07
2019-05-19T07:29:07.211Z,100780.87
2019-05-19T07:31:38.170Z,100780.77
2019-05-19T07:34:09.235Z,100782.82
2019-05-19T07:36:40.291Z,100780.99
2019-05-19T07:39:22.055Z,100779.30
2019-05-19T07:41:55.995Z,100781.42
2019-05-19T07:44:26.854Z,100779.86
2019-05-19T07:46:58.136Z,100782.82
2019-05-19T07:49:29.098Z,100793.11
2019-05-19T07:52:06.219Z,100787.60
2019-05-19T07:54:43.920Z,100793.76
2019-05-19T07:57:23.747Z,100795.36
2019-05-19T08:00:03.880Z,100790.52
2019-05-19T08:02:41.568Z,100793.76
2019-05-19T08:05:16.421Z,100794.05
2019-05-19T08:07:47.544Z,100794.83
2019-05-19T08:10:18.797Z,100793.95
2019-05-19T08:12:49.857Z,100797.21
2019-05-19T08:15:25.797Z,100796.16
2019-05-19T08:17:58.025Z,100790.49
2019-05-19T08:20:29.085Z,100795.06
2019-05-19T08:22:59.935Z,100799.69
2019-05-19T08:25:30.992Z,100786.03
2019-05-19T08:28:08.607Z,100795.12
2019-05-19T08:30:34.333Z,100790.64
2019-05-19T08:33:05.180Z,100800.27
2019-05-19T08:35:36.583Z,100796.41
2019-05-19T08:38:07.523Z,100799.14
2019-05-19T08:40:39.404Z,100801.99
2019-05-19T08:43:10.260Z,100799.81
2019-05-19T08:45:41.358Z,100795.36
2019-05-19T08:48:12.296Z,100803.25
2019-05-19T08:50:43.346Z,100794.67
2019-05-19T08:53:13.927Z,100788.12
2019-05-19T08:55:45.085Z,100791.86
2019-05-19T08:58:16.121Z,100787.70
2019-05-19T09:00:50.855Z,100791.36
2019-05-19T09:03:21.895Z,100786.31
2019-05-19T09:05:52.875Z,100785.56
2019-05-19T09:08:26.883Z,100785.02
2019-05-19T09:10:57.972Z,100776.23
2019-05-19T09:13:28.926Z,100787.10
2019-05-19T09:15:59.982Z,100781.58
2019-05-19T09:18:31.041Z,100778.55
2019-05-19T09:21:01.987Z,100778.00
2019-05-19T09:23:32.957Z,100773.19
2019-05-19T09:26:04.325Z,100772.44
2019-05-19T09:28:36.590Z,100784.78
2019-05-19T09:31:07.436Z,100777.21
2019-05-19T09:33:38.539Z,100771.39
2019-05-19T09:36:09.486Z,100771.39
2019-05-19T09:38:40.428Z,100780.66
2019-05-19T09:41:12.520Z,100783.02
2019-05-19T09:43:43.673Z,100785.36
2019-05-19T09:46:14.756Z,100783.38
2019-05-19T09:48:47.746Z,100777.81
2019-05-19T09:51:24.054Z,100772.54
2019-05-19T09:53:54.871Z,100765.56
2019-05-19T09:56:25.847Z,100765.56
2019-05-19T09:58:57.006Z,100761.27
2019-05-19T10:01:28.788Z,100760.62
2019-05-19T10:03:59.851Z,100767.08
2019-05-19T10:06:30.817Z,100767.73
2019-05-19T10:09:05.047Z,100767.73
2019-05-19T10:11:56.450Z,100759.92
2019-05-19T10:14:27.393Z,100773.89
2019-05-19T10:16:58.267Z,100779.98
2019-05-19T10:19:29.422Z,100770.88
2019-05-19T10:22:00.347Z,100768.22
2019-05-19T10:24:31.449Z,100775.58
2019-05-19T10:27:02.285Z,100755.79
2019-05-19T10:29:33.347Z,100773.86
2019-05-19T10:32:04.325Z,100766.45
2019-05-19T10:34:35.695Z,100762.23
2019-05-19T10:37:06.327Z,100752.39
2019-05-19T10:39:37.304Z,100752.39
2019-05-19T10:42:08.365Z,100751.78
2019-05-19T10:44:39.320Z,100758.01
2019-05-19T10:47:11.802Z,100753.92
2019-05-19T10:49:43.190Z,100748.87
2019-05-19T10:52:14.147Z,100756.02
2019-05-19T10:54:45.206Z,100749.87
2019-05-19T10:57:16.155Z,100746.94
2019-05-19T10:59:47.221Z,100745.86
2019-05-19T11:02:18.284Z,100750.36
2019-05-19T11:04:49.116Z,100751.97
2019-05-19T11:07:20.198Z,100754.84
2019-05-19T11:09:51.153Z,100750.44
2019-05-19T11:12:22.215Z,100754.17
2019-05-19T11:14:53.170Z,100754.17
2019-05-19T11:17:24.029Z,100750.19
2019-05-19T11:19:55.073Z,100753.28
2019-05-19T11:22:26.156Z,100752.01
2019-05-19T11:24:57.216Z,100744.33
2019-05-19T11:27:28.049Z,100753.28
2019-05-19T11:30:02.098Z,100759.72
2019-05-19T11:32:34.593Z,100758.98
2019-05-19T11:35:06.859Z,100758.42
2019-05-19T11:37:37.936Z,100757.84
2019-05-19T11:40:08.980Z,100762.27
2019-05-19T11:42:39.545Z,100758.77
2019-05-19T11:45:10.698Z,100761.28
2019-05-19T11:47:41.244Z,100768.41
2019-05-19T11:50:12.214Z,100763.08
2019-05-19T11:52:43.517Z,100769.52
2019-05-19T11:55:17.513Z,100767.51
2019-05-19T11:57:48.580Z,100770.28
2019-05-19T12:00:20.012Z,100767.22
2019-05-19T12:02:50.583Z,100771.61
2019-05-19T12:05:21.664Z,100761.48
2019-05-19T12:07:52.610Z,100772.98
2019-05-19T12:10:23.670Z,100767.36
2019-05-19T12:12:54.736Z,100772.84
2019-05-19T12:15:25.791Z,100769.80
2019-05-19T12:17:56.756Z,100767.65
2019-05-19T12:20:27.605Z,100768.05
2019-05-19T12:22:58.730Z,100765.31
2019-05-19T12:25:29.828Z,100764.45
2019-05-19T12:28:00.766Z,100774.03
2019-05-19T12:30:31.756Z,100759.75
2019-05-19T12:33:02.931Z,100757.48
2019-05-19T12:35:35.516Z,100759.84
2019-05-19T12:38:07.976Z,100762.63
2019-05-19T12:40:39.059Z,100756.58
2019-05-19T12:43:11.049Z,100758.70
2019-05-19T12:45:42.291Z,100764.48
2019-05-19T12:48:15.633Z,100764.20
2019-05-19T12:50:46.979Z,100757.59
2019-05-19T12:53:18.036Z,100761.94
2019-05-19T12:55:49.104Z,100755.85
2019-05-19T12:58:20.176Z,100768.56
2019-05-19T13:00:51.106Z,100762.11
2019-05-19T13:03:22.180Z,100760.91
2019-05-19T13:05:53.145Z,100757.86
2019-05-19T13:08:23.994Z,100753.74
2019-05-19T13:10:55.070Z,100764.69
2019-05-19T13:13:26.113Z,100759.58
2019-05-19T13:15:57.188Z,100759.52
2019-05-19T13:18:28.136Z,100760.48
2019-05-19T13:20:58.973Z,100759.34
2019-05-19T13:23:29.934Z,100758.23
2019-05-19T13:26:00.915Z,100760.78
2019-05-19T13:28:31.969Z,100756.31
2019-05-19T13:31:03.030Z,100759.46
2019-05-19T13:33:33.897Z,100749.88
2019-05-19T13:36:04.949Z,100759.73
2019-05-19T13:38:35.627Z,100764.95
2019-05-19T13:41:06.456Z,100756.76
2019-05-19T13:43:38.422Z,100751.58
2019-05-19T13:46:09.496Z,100755.94
2019-05-19T13:48:40.467Z,100758.80
2019-05-19T13:51:11.414Z,100755.70
2019-05-19T13:53:42.252Z,100756.08
2019-05-19T13:56:13.230Z,100761.30
2019-05-19T13:58:44.289Z,100760.13
2019-05-19T14:01:27.990Z,100767.38
2019-05-19T14:03:47.619Z,100766.27
2019-05-19T14:06:18.714Z,100764.53
2019-05-19T14:08:49.743Z,100770.09
2019-05-19T14:11:20.703Z,100763.73
2019-05-19T14:13:51.571Z,100771.48
2019-05-19T14:16:22.615Z,100772.83
2019-05-19T14:18:53.596Z,100775.38
2019-05-19T14:21:24.693Z,100782.18
2019-05-19T14:23:57.146Z,100770.94
2019-05-19T14:26:27.901Z,100775.09
2019-05-19T14:28:58.962Z,100774.08
2019-05-19T14:31:29.934Z,100772.66
2019-05-19T14:34:00.960Z,100781.78
2019-05-19T14:36:31.923Z,100772.95
2019-05-19T14:39:05.896Z,100772.63
2019-05-19T14:41:37.127Z,100773.77
2019-05-19T14:44:08.086Z,100774.72
2019-05-19T14:46:39.351Z,100775.39
2019-05-19T14:49:10.293Z,100777.79
2019-05-19T14:51:41.352Z,100771.37
2019-05-19T14:54:12.331Z,100774.78
2019-05-19T14:56:43.390Z,100773.03
2019-05-19T14:59:14.961Z,100774.75
2019-05-19T15:01:46.020Z,100771.48
2019-05-19T15:04:16.980Z,100768.27
2019-05-19T15:06:48.044Z,100773.39
2019-05-19T15:09:18.999Z,100775.80
2019-05-19T15:11:50.145Z,100773.89
2019-05-19T15:14:21.103Z,100769.27
2019-05-19T15:16:52.080Z,100768.40
2019-05-19T15:19:23.020Z,100768.77
2019-05-19T15:21:53.995Z,100769.16
2019-05-19T15:24:28.783Z,100768.47
2019-05-19T15:26:59.371Z,100767.18
2019-05-19T15:29:30.462Z,100761.47
2019-05-19T15:32:01.712Z,100762.06
2019-05-19T15:34:32.862Z,100767.53
2019-05-19T15:37:03.819Z,100769.11
2019-05-19T15:39:34.898Z,100767.96
2019-05-19T15:42:05.845Z,100775.93
2019-05-19T15:44:37.839Z,100769.91
2019-05-19T15:47:09.103Z,100781.19
2019-05-19T15:49:40.060Z,100777.45
2019-05-19T15:52:11.145Z,100778.14
2019-05-19T15:54:42.089Z,100782.63
2019-05-19T15:57:12.921Z,100792.69
2019-05-19T15:59:44.006Z,100790.45
2019-05-19T16:02:14.963Z,100784.42
2019-05-19T16:04:46.019Z,100792.77
2019-05-19T16:07:17.078Z,100783.53
2019-05-19T16:09:48.141Z,100787.82
2019-05-19T16:12:19.088Z,100782.70
2019-05-19T16:14:49.955Z,100784.77
2019-05-19T16:17:22.443Z,100788.30
2019-05-19T16:19:53.404Z,100787.05
2019-05-19T16:22:24.345Z,100791.09
2019-05-19T16:24:55.200Z,100801.37
2019-05-19T16:27:26.305Z,100793.12
2019-05-19T16:29:57.439Z,100800.05
2019-05-19T16:32:28.383Z,100796.08
2019-05-19T16:34:59.471Z,100806.22
2019-05-19T16:37:30.527Z,100808.61
2019-05-19T16:40:04.151Z,100813.23
2019-05-19T16:42:35.202Z,100809.47
2019-05-19T16:45:08.779Z,100813.58
2019-05-19T16:47:39.469Z,100814.13
2019-05-19T16:50:10.594Z,100818.27
2019-05-19T16:52:41.598Z,100813.48
2019-05-19T16:55:17.235Z,100811.83
2019-05-19T16:57:49.221Z,100814.52
2019-05-19T17:00:21.250Z,100814.52
2019-05-19T17:02:54.939Z,100814.80
2019-05-19T17:05:25.917Z,100813.24
2019-05-19T17:07:56.856Z,100816.73
2019-05-19T17:10:27.917Z,100815.08
2019-05-19T17:12:58.856Z,100816.89
2019-05-19T17:15:29.931Z,100817.30
2019-05-19T17:18:00.903Z,100816.06
2019-05-19T17:20:36.577Z,100819.94
2019-05-19T17:23:12.402Z,100824.42
2019-05-19T17:25:46.231Z,100824.72
2019-05-19T17:28:17.189Z,100826.55
2019-05-19T17:30:48.159Z,100827.11
2019-05-19T17:33:19.221Z,100825.16
2019-05-19T17:35:58.420Z,100828.21
2019-05-19T17:38:38.859Z,100830.08
2019-05-19T17:41:10.812Z,100832.44
2019-05-19T17:43:41.872Z,100833.37
2019-05-19T17:46:12.812Z,100834.97
2019-05-19T17:48:43.776Z,100838.73
2019-05-19T17:51:17.612Z,100838.95
2019-05-19T17:53:48.267Z,100843.94
2019-05-19T17:56:19.223Z,100838.73
2019-05-19T17:58:50.540Z,100849.28
2019-05-19T18:01:21.119Z,100851.18
2019-05-19T18:03:52.200Z,100852.70
2019-05-19T18:06:23.037Z,100848.47
2019-05-19T18:08:54.015Z,100850.14
2019-05-19T18:11:25.083Z,100852.59
2019-05-19T18:13:55.726Z,100856.81
2019-05-19T18:16:26.890Z,100851.34
2019-05-19T18:42:14.932Z,100871.25
2019-05-19T18:44:45.989Z,100871.71
2019-05-19T18:47:16.947Z,100872.39
2019-05-19T18:49:52.306Z,100872.11
2019-05-19T18:52:22.956Z,100875.94
2019-05-19T18:54:53.793Z,100874.72
2019-05-19T18:57:24.774Z,100880.16
2019-05-19T18:59:57.751Z,100881.02
2019-05-19T19:02:28.835Z,100877.24
2019-05-19T19:04:59.776Z,100882.62
2019-05-19T19:07:50.305Z,100878.20
2019-05-19T19:10:20.204Z,100885.73
2019-05-19T19:12:50.576Z,100889.11
2019-05-19T19:15:21.629Z,100889.59
2019-05-19T19:17:52.465Z,100884.63
2019-05-19T19:20:23.544Z,100897.20
2019-05-19T19:22:56.274Z,100898.40
2019-05-19T19:25:27.303Z,100895.66
2019-05-19T19:27:58.370Z,100902.17
2019-05-19T19:30:29.199Z,100903.73
2019-05-19T19:33:03.472Z,100904.30
2019-05-19T19:35:39.127Z,100902.28
2019-05-19T19:38:08.370Z,100903.88
2019-05-19T19:40:40.545Z,100908.19
2019-05-19T19:43:11.460Z,100901.55
2019-05-19T19:45:42.545Z,100906.03
2019-05-19T19:48:13.070Z,100902.09
2019-05-19T19:50:44.066Z,100907.23
2019-05-19T19:53:14.580Z,100907.51
2019-05-19T19:55:45.535Z,100905.73
2019-05-19T19:58:16.517Z,100909.84
2019-05-19T20:00:47.575Z,100911.05
2019-05-19T20:03:18.208Z,100904.30
2019-05-19T20:05:49.187Z,100905.80
2019-05-19T20:08:20.122Z,100909.34
2019-05-19T20:10:50.993Z,100905.81
2019-05-19T20:13:21.938Z,100906.30
2019-05-19T20:15:53.015Z,100914.32
2019-05-19T20:18:23.981Z,100913.41
2019-05-19T20:20:54.914Z,100914.19
2019-05-19T20:23:25.891Z,100909.48
2019-05-19T20:25:56.849Z,100918.38
2019-05-19T20:28:27.794Z,100909.72
2019-05-19T20:30:58.658Z,100913.56
2019-05-19T20:33:29.725Z,100915.37
2019-05-19T20:36:01.296Z,100923.28
2019-05-19T20:38:32.459Z,100928.83
2019-05-19T20:41:03.401Z,100930.91
2019-05-19T20:43:34.257Z,100928.16
2019-05-19T20:46:05.114Z,100922.82
2019-05-19T20:48:35.988Z,100922.30
2019-05-19T20:51:06.928Z,100926.84
2019-05-19T20:53:37.903Z,100932.49
2019-05-19T20:56:08.759Z,100928.42
2019-05-19T20:58:39.698Z,100946.83
2019-05-19T21:01:10.559Z,100943.98
2019-05-19T21:03:41.634Z,100948.64
2019-05-19T21:06:12.576Z,100944.27
2019-05-19T21:08:43.124Z,100943.88
2019-05-19T21:11:14.203Z,100949.24
2019-05-19T21:13:45.264Z,100950.75
2019-05-19T21:16:16.120Z,100956.21
2019-05-19T21:18:47.061Z,100962.09
2019-05-19T21:21:18.040Z,100971.10
2019-05-19T21:23:49.100Z,100973.80
2019-05-19T21:26:20.158Z,100983.78
2019-05-19T21:28:51.097Z,100973.06
2019-05-19T21:31:22.075Z,100977.58
2019-05-19T21:33:53.033Z,100978.16
2019-05-19T21:36:29.516Z,100981.38
2019-05-19T21:39:00.676Z,100981.66
2019-05-19T21:41:31.514Z,100974.27
2019-05-19T21:44:02.601Z,100979.16
2019-05-19T21:46:33.655Z,100980.13
2019-05-19T21:49:04.713Z,100983.61
2019-05-19T21:51:35.673Z,100997.48
2019-05-19T21:54:06.633Z,100991.55
2019-05-19T21:56:37.570Z,100995.65
2019-05-19T21:59:08.553Z,100999.84
2019-05-19T22:01:39.488Z,101002.16
2019-05-19T22:04:10.345Z,101002.84
2019-05-19T22:06:42.958Z,101001.74
2019-05-19T22:09:13.899Z,101000.05
2019-05-19T22:11:44.873Z,101005.23
2019-05-19T22:14:15.936Z,101012.98
2019-05-19T22:16:46.894Z,101005.42
2019-05-19T22:19:17.858Z,101005.30
2019-05-19T22:21:48.913Z,101009.87
2019-05-19T22:24:19.770Z,101011.45
2019-05-19T22:26:50.710Z,101010.74
2019-05-19T22:29:21.683Z,101011.27
2019-05-19T22:31:52.539Z,101011.02
2019-05-19T22:34:23.607Z,101010.53
2019-05-19T22:36:54.560Z,101021.17
2019-05-19T22:39:25.623Z,101019.53
2019-05-19T22:41:56.582Z,101018.70
2019-05-19T22:44:27.639Z,101027.17
2019-05-19T22:46:58.491Z,101025.97
2019-05-19T22:49:29.334Z,101030.64
2019-05-19T22:52:00.295Z,101033.00
2019-05-19T22:54:31.269Z,101032.80
2019-05-19T22:57:02.126Z,101034.00
2019-05-19T22:59:33.187Z,101031.33
2019-05-19T23:02:04.142Z,101030.88
2019-05-19T23:04:35.204Z,101035.59
2019-05-19T23:07:06.162Z,101026.25
2019-05-19T23:09:36.693Z,101025.34
2019-05-19T23:12:07.776Z,101028.03
2019-05-19T23:14:38.742Z,101028.14
2019-05-19T23:17:09.591Z,101030.77
2019-05-19T23:19:40.527Z,101031.23
2019-05-19T23:22:11.385Z,101030.72
2019-05-19T23:24:42.461Z,101028.92
2019-05-19T23:27:13.299Z,101036.80
2019-05-19T23:29:44.325Z,101028.83
2019-05-19T23:32:15.440Z,101031.73
2019-05-19T23:34:46.398Z,101040.91
2019-05-19T23:37:17.345Z,101040.03
2019-05-19T23:39:48.198Z,101035.50
2019-05-19T23:42:19.272Z,101038.74
2019-05-19T23:44:50.216Z,101040.45
2019-05-19T23:47:21.193Z,101045.22
2019-05-19T23:49:52.254Z,101041.86
2019-05-19T23:52:23.210Z,101042.73
2019-05-19T23:54:54.336Z,101042.19
2019-05-19T23:57:25.434Z,101047.05
2019-05-19T23:59:56.375Z,101044.23
